Disclaimer

Please do not use the information listed here in-flight or in-navigation, as they are not provided to us by the airports but are provided by volunteers, so they might be outdated.

Search


Regions


Airport information page

Radio informations:
RDO - 122.7 MHz

Airport informations:
Latitude: 43° 34' 39.00" N
Longitude: 144° 57' 36.00" E
Elevation: 234 feet - 71 meters
Operating hours: Remarks
Operating agency: Civil government, landing fees and diplomatic clearance may be required
Timezone: UTC+9
Fuel: N/A

Runway information:
08/26 - 6560 x 150 feet< - >1999 x 46 meters

Recent METARs:
RJCN 182330Z 25004KT 9999 FEW040 SCT150 BKN/// 02/M01 Q1015

Airport on the map: